Terminal Aerodrome Forecast
Issued by NWS Sterling, VA

Current Version | Previous Version | Graphics & Text | Print | Product List | Glossary On
Versions: 1 2 3 4 5 6 7 8 9 10 11 12 13 14 15 16 17 18 19 20 21 22 23 24 25 26
000
FTUS41 KLWX 281458 AAA
TAFIAD
TAF AMD
KIAD 281458Z 2815/2918 24012KT P6SM BKN035
     FM281600 26015G23KT P6SM BKN040
     FM282200 28012KT P6SM SCT050
     FM290200 29010KT P6SM FEW250
     FM290600 29006KT P6SM SKC=

USA.gov is the U.S. government's official web portal to all federal, state and local government web resources and services.